createdAt,value
2022-08-05T00:00:53.726Z,20.80
2022-08-05T00:03:20.490Z,20.80
2022-08-05T00:06:06.585Z,20.70
2022-08-05T00:08:36.371Z,20.70
2022-08-05T00:11:04.451Z,20.70
2022-08-05T00:13:47.257Z,20.70
2022-08-05T00:16:35.564Z,20.70
2022-08-05T00:19:02.609Z,20.60
2022-08-05T00:21:30.542Z,20.60
2022-08-05T00:24:10.079Z,20.60
2022-08-05T00:26:37.540Z,20.60
2022-08-05T00:29:04.224Z,20.60
2022-08-05T00:31:53.827Z,20.50
2022-08-05T00:34:55.857Z,20.50
2022-08-05T00:37:13.150Z,20.50
2022-08-05T00:39:57.113Z,20.40
2022-08-05T00:42:32.535Z,20.40
2022-08-05T00:44:59.666Z,20.40
2022-08-05T00:47:26.395Z,20.30
2022-08-05T00:50:13.020Z,20.30
2022-08-05T00:52:40.242Z,20.30
2022-08-05T00:55:07.046Z,20.30
2022-08-05T00:57:55.332Z,20.30
2022-08-05T01:00:21.902Z,20.30
2022-08-05T01:02:50.178Z,20.30
2022-08-05T01:05:16.923Z,20.30
2022-08-05T01:08:39.898Z,20.30
2022-08-05T01:11:22.451Z,20.30
2022-08-05T01:14:08.908Z,20.30
2022-08-05T01:16:39.019Z,20.20
2022-08-05T01:19:19.386Z,20.20
2022-08-05T01:21:55.097Z,20.10
2022-08-05T01:24:44.275Z,20.00
2022-08-05T01:27:22.210Z,20.00
2022-08-05T01:29:50.256Z,20.00
2022-08-05T01:32:22.393Z,19.90
2022-08-05T01:34:54.215Z,19.90
2022-08-05T01:37:34.487Z,19.90
2022-08-05T01:40:05.301Z,19.90
2022-08-05T01:42:33.141Z,19.90
2022-08-05T01:45:02.329Z,19.90
2022-08-05T01:47:38.903Z,19.90
2022-08-05T01:50:14.986Z,19.80
2022-08-05T01:52:43.874Z,19.80
2022-08-05T01:55:12.253Z,19.80
2022-08-05T01:58:10.550Z,19.80
2022-08-05T02:00:30.356Z,19.70
2022-08-05T02:02:59.998Z,19.70
2022-08-05T02:05:31.576Z,19.70
2022-08-05T02:08:01.982Z,19.70
2022-08-05T02:10:30.952Z,19.70
2022-08-05T02:13:15.844Z,19.70
2022-08-05T02:16:03.610Z,19.70
2022-08-05T02:18:41.868Z,19.60
2022-08-05T02:21:19.429Z,19.60
2022-08-05T02:23:52.206Z,19.50
2022-08-05T02:26:21.780Z,19.50
2022-08-05T02:28:48.931Z,19.50
2022-08-05T02:31:17.249Z,19.50
2022-08-05T02:33:57.169Z,19.50
2022-08-05T02:36:27.557Z,19.50
2022-08-05T02:38:58.377Z,19.50
2022-08-05T02:41:28.923Z,19.50
2022-08-05T02:44:13.052Z,19.40
2022-08-05T02:46:43.907Z,19.40
2022-08-05T02:49:26.113Z,19.30
2022-08-05T02:52:02.785Z,19.40
2022-08-05T02:54:36.040Z,19.30
2022-08-05T02:57:09.760Z,19.40
2022-08-05T02:59:48.097Z,19.30
2022-08-05T03:02:19.109Z,19.30
2022-08-05T03:04:48.934Z,19.30
2022-08-05T03:07:40.653Z,19.30
2022-08-05T03:10:07.538Z,19.30
2022-08-05T03:12:38.700Z,19.30
2022-08-05T03:15:06.982Z,19.30
2022-08-05T03:17:41.504Z,19.30
2022-08-05T03:20:09.992Z,19.30
2022-08-05T03:22:37.064Z,19.30
2022-08-05T03:25:33.586Z,19.30
2022-08-05T03:27:59.101Z,19.20
2022-08-05T03:30:33.469Z,19.20
2022-08-05T03:33:01.822Z,19.20
2022-08-05T03:35:29.252Z,19.20
2022-08-05T03:38:00.922Z,19.20
2022-08-05T03:40:31.798Z,19.20
2022-08-05T03:43:01.470Z,19.20
2022-08-05T03:45:57.662Z,19.20
2022-08-05T03:48:29.152Z,19.20
2022-08-05T03:52:38.731Z,19.10
2022-08-05T03:55:52.581Z,19.20
2022-08-05T03:56:47.737Z,19.10
2022-08-05T03:59:20.462Z,19.10
2022-08-05T04:01:49.243Z,19.10
2022-08-05T04:04:21.223Z,19.10
2022-08-05T04:06:51.315Z,19.10
2022-08-05T04:09:20.424Z,19.20
2022-08-05T04:11:53.995Z,19.20
2022-08-05T04:14:29.745Z,19.20
2022-08-05T04:16:58.602Z,19.30
2022-08-05T04:19:25.426Z,19.30
2022-08-05T04:22:08.561Z,19.30
2022-08-05T04:24:44.059Z,19.40
2022-08-05T04:27:12.299Z,19.40
2022-08-05T04:29:39.447Z,19.50
2022-08-05T04:32:06.695Z,19.60
2022-08-05T04:34:35.943Z,19.70
2022-08-05T04:37:05.744Z,19.70
2022-08-05T04:39:35.457Z,19.80
2022-08-05T04:42:02.484Z,19.90
2022-08-05T04:44:30.809Z,20.00
2022-08-05T04:46:58.661Z,20.10
2022-08-05T04:49:38.755Z,20.10
2022-08-05T04:52:12.517Z,20.20
2022-08-05T04:54:39.288Z,20.30
2022-08-05T04:57:05.987Z,20.40
2022-08-05T04:59:38.443Z,20.50
2022-08-05T05:02:37.345Z,20.60
2022-08-05T05:04:53.322Z,20.70
2022-08-05T05:07:32.352Z,20.80
2022-08-05T05:10:02.263Z,20.80
2022-08-05T05:12:29.739Z,20.80
2022-08-05T05:14:56.411Z,20.90
2022-08-05T05:17:24.662Z,20.80
2022-08-05T05:20:10.484Z,20.80
2022-08-05T05:22:40.894Z,20.80
2022-08-05T05:25:16.980Z,20.80
2022-08-05T05:27:53.645Z,20.80
2022-08-05T05:30:29.348Z,20.80
2022-08-05T05:33:00.747Z,20.80
2022-08-05T05:35:39.567Z,20.90
2022-08-05T05:38:13.744Z,21.00
2022-08-05T05:40:48.287Z,21.10
2022-08-05T05:43:27.591Z,21.20
2022-08-05T05:46:05.222Z,21.30
2022-08-05T05:48:32.497Z,21.40
2022-08-05T05:51:15.562Z,21.50
2022-08-05T05:53:54.026Z,21.50
2022-08-05T05:56:32.825Z,21.70
2022-08-05T05:59:03.443Z,21.80
2022-08-05T06:01:37.923Z,22.00
2022-08-05T06:04:14.742Z,22.10
2022-08-05T06:06:47.423Z,22.30
2022-08-05T06:09:17.667Z,22.40
2022-08-05T06:11:59.986Z,22.60
2022-08-05T06:14:33.280Z,22.70
2022-08-05T06:17:22.203Z,22.80
2022-08-05T06:19:56.927Z,22.90
2022-08-05T06:22:27.687Z,23.00
2022-08-05T06:24:54.402Z,23.00
2022-08-05T06:28:11.815Z,23.00
2022-08-05T06:30:18.167Z,23.10
2022-08-05T06:32:47.834Z,23.20
2022-08-05T06:35:21.599Z,23.30
2022-08-05T06:37:57.994Z,23.40
2022-08-05T06:40:28.078Z,23.60
2022-08-05T06:42:59.337Z,23.80
2022-08-05T06:46:03.090Z,24.00
2022-08-05T06:48:53.199Z,24.20
2022-08-05T06:51:00.190Z,24.20
2022-08-05T06:53:28.297Z,24.30
2022-08-05T06:55:56.912Z,24.30
2022-08-05T06:58:34.922Z,24.40
2022-08-05T07:01:05.162Z,24.50
2022-08-05T07:03:33.310Z,24.60
2022-08-05T07:06:06.307Z,24.60
2022-08-05T07:08:47.998Z,24.70
2022-08-05T07:11:22.304Z,24.80
2022-08-05T07:14:15.596Z,24.80
2022-08-05T07:18:01.165Z,24.80
2022-08-05T07:22:29.064Z,24.80
2022-08-05T07:24:58.043Z,24.90
2022-08-05T07:27:24.971Z,25.00
2022-08-05T07:30:21.846Z,25.00
2022-08-05T07:32:43.825Z,25.10
2022-08-05T07:35:55.582Z,25.20
2022-08-05T07:37:57.804Z,25.30
2022-08-05T07:40:33.085Z,25.40
2022-08-05T07:43:04.789Z,25.40
2022-08-05T07:45:58.252Z,25.40
2022-08-05T07:49:02.217Z,25.50
2022-08-05T07:51:23.873Z,25.60
2022-08-05T07:53:59.183Z,25.60
2022-08-05T07:57:00.146Z,25.60
2022-08-05T07:59:15.483Z,25.60
2022-08-05T08:01:52.083Z,25.70
2022-08-05T08:04:37.672Z,25.80
2022-08-05T08:07:07.091Z,25.90
2022-08-05T08:09:34.850Z,26.00
2022-08-05T08:12:09.133Z,26.10
2022-08-05T08:14:41.686Z,26.10
2022-08-05T08:17:20.591Z,26.10
2022-08-05T08:20:23.031Z,26.20
2022-08-05T08:22:35.307Z,26.30
2022-08-05T08:25:16.087Z,26.40
2022-08-05T08:27:45.236Z,26.40
2022-08-05T08:30:29.596Z,26.60
2022-08-05T08:33:04.567Z,26.70
2022-08-05T08:35:41.282Z,26.80
2022-08-05T08:38:08.690Z,26.80
2022-08-05T08:40:45.694Z,26.90
2022-08-05T08:45:20.551Z,27.00
2022-08-05T08:46:06.186Z,27.10
2022-08-05T08:48:42.889Z,27.20
2022-08-05T08:52:03.326Z,27.20
2022-08-05T08:54:11.226Z,27.40
2022-08-05T08:56:47.866Z,27.50
2022-08-05T08:59:19.337Z,27.50
2022-08-05T09:01:56.966Z,27.50
2022-08-05T09:04:30.308Z,27.70
2022-08-05T09:06:58.393Z,27.80
2022-08-05T09:09:25.959Z,27.90
2022-08-05T09:12:03.322Z,28.00
2022-08-05T09:14:56.990Z,28.30
2022-08-05T09:17:40.924Z,28.50
2022-08-05T09:20:09.025Z,28.90
2022-08-05T09:22:54.378Z,29.00
2022-08-05T09:26:01.830Z,29.20
2022-08-05T09:28:21.231Z,29.60
2022-08-05T09:30:48.091Z,29.50
2022-08-05T09:33:17.107Z,29.50
2022-08-05T09:35:54.133Z,29.60
2022-08-05T09:38:27.598Z,29.70
2022-08-05T09:41:03.898Z,30.00
2022-08-05T09:43:40.618Z,30.20
2022-08-05T09:46:27.607Z,30.10
2022-08-05T09:49:07.682Z,30.30
2022-08-05T09:51:42.401Z,30.20
2022-08-05T09:54:10.223Z,30.40
2022-08-05T09:56:37.987Z,30.70
2022-08-05T09:59:06.197Z,30.60
2022-08-05T10:01:35.175Z,30.60
2022-08-05T10:04:10.222Z,30.40
2022-08-05T10:06:40.476Z,30.40
2022-08-05T10:09:27.987Z,30.50
2022-08-05T10:12:18.506Z,30.70
2022-08-05T10:14:54.639Z,30.60
2022-08-05T10:17:37.799Z,30.80
2022-08-05T10:20:10.154Z,30.70
2022-08-05T10:22:42.902Z,30.60
2022-08-05T10:25:15.743Z,30.60
2022-08-05T10:28:13.339Z,30.90
2022-08-05T10:31:20.969Z,30.80
2022-08-05T10:33:17.154Z,30.80
2022-08-05T10:35:48.630Z,30.90
2022-08-05T10:38:27.390Z,30.70
2022-08-05T10:41:12.433Z,30.80
2022-08-05T10:44:04.799Z,30.90
2022-08-05T10:46:50.749Z,30.90
2022-08-05T10:49:26.890Z,30.90
2022-08-05T10:52:02.544Z,31.00
2022-08-05T10:54:56.061Z,30.80
2022-08-05T10:57:32.245Z,30.70
2022-08-05T11:00:16.153Z,30.60
2022-08-05T11:03:23.023Z,30.70
2022-08-05T11:06:04.777Z,30.80
2022-08-05T11:08:37.028Z,30.90
2022-08-05T11:11:23.256Z,30.90
2022-08-05T11:14:00.251Z,30.70
2022-08-05T11:16:47.844Z,30.40
2022-08-05T11:20:16.436Z,30.50
2022-08-05T11:22:34.145Z,30.40
2022-08-05T11:26:05.038Z,30.60
2022-08-05T11:28:09.552Z,30.50
2022-08-05T11:31:01.444Z,30.90
2022-08-05T11:33:46.434Z,30.90
2022-08-05T11:36:42.688Z,31.00
2022-08-05T11:39:10.288Z,31.00
2022-08-05T11:42:01.767Z,31.00
2022-08-05T11:44:53.093Z,31.10
2022-08-05T11:47:22.194Z,31.30
2022-08-05T11:50:07.851Z,31.40
2022-08-05T11:52:34.658Z,31.20
2022-08-05T11:55:07.487Z,31.20
2022-08-05T11:58:08.146Z,31.30
2022-08-05T12:00:29.057Z,31.20
2022-08-05T12:02:57.234Z,31.20
2022-08-05T12:05:36.490Z,31.40
2022-08-05T12:08:09.997Z,31.60
2022-08-05T12:10:46.120Z,31.40
2022-08-05T12:13:28.230Z,31.30
2022-08-05T12:16:04.780Z,31.30
2022-08-05T12:18:41.044Z,31.10
2022-08-05T12:21:17.965Z,30.90
2022-08-05T12:23:54.938Z,31.10
2022-08-05T12:26:23.085Z,31.10
2022-08-05T12:28:50.706Z,31.30
2022-08-05T12:31:23.436Z,31.30
2022-08-05T12:34:01.610Z,30.90
2022-08-05T12:36:30.217Z,30.80
2022-08-05T12:38:58.515Z,30.70
2022-08-05T12:41:34.581Z,30.70
2022-08-05T12:44:02.744Z,30.70
2022-08-05T12:46:31.355Z,30.90
2022-08-05T12:49:01.118Z,31.00
2022-08-05T12:52:10.393Z,31.10
2022-08-05T12:54:31.223Z,31.10
2022-08-05T12:57:02.311Z,31.30
2022-08-05T13:00:08.654Z,31.10
2022-08-05T13:02:35.580Z,31.10
2022-08-05T13:05:06.357Z,31.60
2022-08-05T13:07:59.333Z,31.70
2022-08-05T13:10:20.445Z,31.70
2022-08-05T13:12:57.134Z,31.60
2022-08-05T13:15:35.980Z,31.50
2022-08-05T13:18:19.937Z,31.40
2022-08-05T13:20:47.528Z,31.60
2022-08-05T13:23:22.104Z,31.70
2022-08-05T13:25:52.470Z,31.60
2022-08-05T13:28:25.892Z,31.60
2022-08-05T13:30:53.345Z,31.60
2022-08-05T13:34:22.357Z,31.90
2022-08-05T13:36:09.208Z,31.90
2022-08-05T13:38:38.428Z,31.80
2022-08-05T13:41:09.550Z,31.90
2022-08-05T13:43:44.331Z,32.00
2022-08-05T13:46:50.569Z,32.00
2022-08-05T13:49:10.420Z,32.20
2022-08-05T13:51:41.023Z,32.20
2022-08-05T13:54:11.947Z,32.10
2022-08-05T13:56:44.937Z,32.30
2022-08-05T13:59:19.969Z,32.30
2022-08-05T14:01:59.005Z,32.40
2022-08-05T14:04:50.009Z,32.50
2022-08-05T14:07:25.525Z,32.40
2022-08-05T14:10:28.767Z,32.40
2022-08-05T14:12:55.984Z,32.30
2022-08-05T14:16:08.954Z,32.50
2022-08-05T14:18:15.125Z,32.50
2022-08-05T14:20:47.255Z,32.40
2022-08-05T14:23:18.944Z,32.40
2022-08-05T14:25:53.906Z,32.20
2022-08-05T14:28:26.263Z,32.30
2022-08-05T14:30:54.522Z,32.20
2022-08-05T14:33:22.652Z,32.10
2022-08-05T14:35:52.084Z,31.80
2022-08-05T14:38:31.883Z,31.50
2022-08-05T14:41:03.601Z,31.40
2022-08-05T14:43:59.106Z,31.30
2022-08-05T14:46:20.545Z,31.20
2022-08-05T14:48:49.208Z,31.10
2022-08-05T14:51:17.514Z,31.10
2022-08-05T14:53:44.928Z,31.10
2022-08-05T14:56:11.997Z,31.10
2022-08-05T14:58:47.575Z,30.90
2022-08-05T15:01:46.988Z,30.90
2022-08-05T15:04:11.540Z,30.90
2022-08-05T15:06:38.703Z,30.80
2022-08-05T15:09:07.244Z,30.80
2022-08-05T15:11:52.611Z,30.70
2022-08-05T15:14:34.719Z,30.60
2022-08-05T15:17:14.611Z,30.60
2022-08-05T15:19:55.734Z,30.40
2022-08-05T15:22:26.967Z,30.40
2022-08-05T15:24:54.930Z,30.30
2022-08-05T15:27:21.598Z,30.20
2022-08-05T15:29:52.246Z,30.20
2022-08-05T15:32:21.069Z,30.10
2022-08-05T15:34:54.212Z,30.00
2022-08-05T15:38:32.421Z,29.80
2022-08-05T15:40:58.874Z,29.70
2022-08-05T15:43:01.321Z,29.60
2022-08-05T15:45:38.253Z,29.40
2022-08-05T15:48:05.780Z,29.40
2022-08-05T15:50:33.767Z,29.30
2022-08-05T15:53:04.141Z,29.20
2022-08-05T15:56:03.999Z,29.10
2022-08-05T15:58:19.432Z,29.00
2022-08-05T16:00:51.001Z,29.00
2022-08-05T16:03:32.695Z,28.90
2022-08-05T16:06:00.716Z,28.90
2022-08-05T16:08:30.379Z,28.80
2022-08-05T16:10:58.049Z,28.70
2022-08-05T16:13:34.193Z,28.60
2022-08-05T16:16:02.101Z,28.60
2022-08-05T16:18:32.767Z,28.50
2022-08-05T16:21:04.315Z,28.40
2022-08-05T16:23:33.042Z,28.40
2022-08-05T16:26:18.725Z,28.40
2022-08-05T16:28:52.987Z,28.30
2022-08-05T16:31:21.538Z,28.30
2022-08-05T16:33:48.398Z,28.10
2022-08-05T16:36:15.106Z,28.00
2022-08-05T16:38:54.648Z,27.80
2022-08-05T16:42:13.843Z,27.70
2022-08-05T16:44:09.424Z,27.50
2022-08-05T16:46:36.510Z,27.40
2022-08-05T16:49:09.030Z,27.30
2022-08-05T16:51:50.093Z,27.20
2022-08-05T16:54:25.819Z,27.10
2022-08-05T16:56:55.483Z,27.00
2022-08-05T16:59:23.041Z,27.00
2022-08-05T17:01:54.650Z,26.90
2022-08-05T17:04:26.068Z,26.80
2022-08-05T17:06:55.363Z,26.80
2022-08-05T17:09:22.989Z,26.70
2022-08-05T17:11:54.707Z,26.60
2022-08-05T17:14:36.942Z,26.60
2022-08-05T17:17:05.553Z,26.50
2022-08-05T17:19:32.309Z,26.40
2022-08-05T17:22:00.831Z,26.40
2022-08-05T17:24:40.365Z,26.30
2022-08-05T17:27:13.198Z,26.20
2022-08-05T17:29:43.000Z,26.00
2022-08-05T17:32:11.396Z,26.00
2022-08-05T17:34:43.225Z,25.90
2022-08-05T17:37:27.217Z,25.90
2022-08-05T17:40:00.068Z,25.80
2022-08-05T17:42:32.399Z,25.80
2022-08-05T17:45:17.688Z,25.70
2022-08-05T17:47:53.018Z,25.60
2022-08-05T17:50:28.790Z,25.50
2022-08-05T17:53:01.175Z,25.40
2022-08-05T17:55:34.559Z,25.30
2022-08-05T17:58:06.940Z,25.30
2022-08-05T18:00:36.125Z,25.30
2022-08-05T18:03:06.711Z,25.20
2022-08-05T18:05:36.165Z,25.10
2022-08-05T18:08:03.455Z,25.10
2022-08-05T18:10:33.412Z,25.00
2022-08-05T18:13:01.800Z,25.00
2022-08-05T18:15:31.226Z,25.10
2022-08-05T18:18:05.773Z,24.90
2022-08-05T18:20:37.805Z,24.90
2022-08-05T18:23:09.475Z,24.80
2022-08-05T18:25:39.560Z,24.80
2022-08-05T18:28:12.247Z,24.80
2022-08-05T18:30:50.945Z,24.70
2022-08-05T18:33:22.688Z,24.70
2022-08-05T18:36:03.409Z,24.70
2022-08-05T18:38:34.454Z,24.60
2022-08-05T18:41:53.847Z,24.50
2022-08-05T18:43:49.720Z,24.40
2022-08-05T18:46:19.518Z,24.40
2022-08-05T18:48:48.282Z,24.30
2022-08-05T18:52:04.357Z,24.30
2022-08-05T18:54:28.594Z,24.20
2022-08-05T18:56:59.919Z,24.10
2022-08-05T18:59:43.239Z,24.10
2022-08-05T19:02:27.690Z,24.10
2022-08-05T19:05:02.734Z,24.10
2022-08-05T19:07:46.166Z,24.00
2022-08-05T19:10:14.294Z,24.00
2022-08-05T19:12:41.484Z,24.00
2022-08-05T19:15:24.998Z,24.00
2022-08-05T19:18:08.642Z,23.90
2022-08-05T19:20:41.384Z,23.90
2022-08-05T19:24:06.101Z,23.90
2022-08-05T19:26:02.203Z,23.80
2022-08-05T19:28:32.887Z,23.70
2022-08-05T19:31:00.886Z,23.70
2022-08-05T19:33:35.887Z,23.70
2022-08-05T19:36:07.133Z,23.70
2022-08-05T19:38:36.311Z,23.70
2022-08-05T19:41:06.697Z,23.60
2022-08-05T19:44:05.888Z,23.70
2022-08-05T19:46:29.815Z,23.60
2022-08-05T19:49:02.802Z,23.60
2022-08-05T19:52:08.758Z,23.60
2022-08-05T19:54:28.393Z,23.60
2022-08-05T19:57:08.650Z,23.60
2022-08-05T20:00:00.901Z,23.60
2022-08-05T20:02:27.683Z,23.60
2022-08-05T20:04:58.484Z,23.50
2022-08-05T20:07:46.617Z,23.50
2022-08-05T20:10:14.227Z,23.40
2022-08-05T20:12:48.416Z,23.40
2022-08-05T20:15:48.288Z,23.30
2022-08-05T20:18:09.750Z,23.30
2022-08-05T20:20:38.097Z,23.30
2022-08-05T20:23:05.568Z,23.30
2022-08-05T20:25:39.851Z,23.30
2022-08-05T20:28:13.904Z,23.30
2022-08-05T20:30:41.457Z,23.30
2022-08-05T20:33:08.697Z,23.30
2022-08-05T20:35:40.510Z,23.30
2022-08-05T20:38:20.163Z,23.30
2022-08-05T20:40:55.335Z,23.30
2022-08-05T20:43:33.143Z,23.30
2022-08-05T20:46:12.445Z,23.20
2022-08-05T20:48:45.438Z,23.20
2022-08-05T20:51:18.005Z,23.20
2022-08-05T20:53:56.699Z,23.20
2022-08-05T20:56:29.792Z,23.20
2022-08-05T20:59:00.042Z,23.20
2022-08-05T21:01:38.434Z,23.10
2022-08-05T21:04:07.299Z,23.10
2022-08-05T21:06:37.219Z,23.10
2022-08-05T21:09:07.243Z,23.10
2022-08-05T21:12:06.952Z,23.10
2022-08-05T21:14:26.698Z,23.00
2022-08-05T21:16:53.683Z,23.00
2022-08-05T21:19:20.508Z,23.00
2022-08-05T21:21:51.013Z,23.00
2022-08-05T21:24:19.539Z,23.00
2022-08-05T21:26:58.485Z,23.00
2022-08-05T21:29:32.163Z,23.00
2022-08-05T21:31:59.732Z,23.00
2022-08-05T21:34:28.186Z,23.00
2022-08-05T21:36:55.122Z,23.00
2022-08-05T21:39:27.092Z,22.90
2022-08-05T21:42:01.926Z,22.90
2022-08-05T21:44:29.845Z,22.90
2022-08-05T21:46:58.038Z,22.90
2022-08-05T21:49:48.473Z,22.90
2022-08-05T21:52:15.772Z,22.90
2022-08-05T21:54:51.140Z,22.90
2022-08-05T21:57:31.657Z,22.90
2022-08-05T22:00:05.583Z,22.80
2022-08-05T22:02:33.940Z,22.80
2022-08-05T22:05:00.807Z,22.80
2022-08-05T22:07:40.001Z,22.80
2022-08-05T22:10:15.291Z,22.80
2022-08-05T22:12:45.123Z,22.70
2022-08-05T22:16:01.991Z,22.90
2022-08-05T22:18:05.093Z,22.80
2022-08-05T22:20:32.040Z,22.70
2022-08-05T22:23:21.624Z,22.70
2022-08-05T22:26:09.996Z,22.60
2022-08-05T22:28:38.642Z,22.60
2022-08-05T22:31:05.965Z,22.70
2022-08-05T22:33:57.254Z,22.60
2022-08-05T22:36:24.048Z,22.50
2022-08-05T22:38:51.657Z,22.50
2022-08-05T22:41:26.222Z,22.50
2022-08-05T22:44:07.947Z,22.70
2022-08-05T22:46:39.750Z,22.80
2022-08-05T22:49:12.456Z,22.90
2022-08-05T22:52:04.844Z,22.90
2022-08-05T22:54:33.602Z,22.80
2022-08-05T22:57:00.269Z,22.90
2022-08-05T22:59:45.931Z,23.00
2022-08-05T23:02:22.840Z,22.80
2022-08-05T23:04:57.070Z,22.60
2022-08-05T23:07:23.753Z,22.60
2022-08-05T23:10:01.706Z,22.50
2022-08-05T23:12:32.884Z,22.50
2022-08-05T23:15:03.015Z,22.60
2022-08-05T23:17:34.835Z,22.50
2022-08-05T23:20:10.424Z,22.50
2022-08-05T23:22:47.828Z,22.50
2022-08-05T23:25:17.029Z,22.50
2022-08-05T23:27:57.739Z,22.50
2022-08-05T23:30:29.134Z,22.50
2022-08-05T23:32:58.029Z,22.50
2022-08-05T23:35:28.586Z,22.50
2022-08-05T23:38:01.216Z,22.50
2022-08-05T23:40:27.934Z,22.50
2022-08-05T23:42:55.143Z,22.50
2022-08-05T23:45:23.762Z,22.50
2022-08-05T23:47:53.707Z,22.50
2022-08-05T23:50:26.499Z,22.50
2022-08-05T23:52:55.370Z,22.50
2022-08-05T23:55:22.482Z,22.50
2022-08-05T23:57:57.625Z,22.50
